createdAt,value
2023-03-07T00:00:47.950Z,84.80
2023-03-07T00:06:01.193Z,84.91
2023-03-07T00:11:09.331Z,84.87
2023-03-07T00:16:17.689Z,84.86
2023-03-07T00:21:22.541Z,85.13
2023-03-07T00:26:27.167Z,85.16
2023-03-07T00:31:30.008Z,85.08
2023-03-07T00:36:32.862Z,85.24
2023-03-07T00:41:35.665Z,85.30
2023-03-07T00:46:38.835Z,85.34
2023-03-07T00:51:41.610Z,85.43
2023-03-07T00:56:44.716Z,85.70
2023-03-07T01:01:47.541Z,85.80
2023-03-07T01:06:50.814Z,86.09
2023-03-07T01:11:53.848Z,86.13
2023-03-07T01:16:56.980Z,86.21
2023-03-07T01:21:59.756Z,86.08
2023-03-07T01:27:02.506Z,86.09
2023-03-07T01:32:05.595Z,86.10
2023-03-07T01:37:08.593Z,86.44
2023-03-07T01:42:11.375Z,86.51
2023-03-07T01:47:14.124Z,86.65
2023-03-07T01:52:22.158Z,87.01
2023-03-07T01:57:33.332Z,87.14
2023-03-07T02:02:39.585Z,87.10
2023-03-07T02:07:48.564Z,87.13
2023-03-07T02:12:54.801Z,86.98
2023-03-07T02:17:59.006Z,86.84
2023-03-07T02:23:04.852Z,86.69
2023-03-07T02:28:11.696Z,86.97
2023-03-07T02:33:14.936Z,87.02
2023-03-07T02:38:17.751Z,87.10
2023-03-07T02:43:21.875Z,87.31
2023-03-07T02:48:24.674Z,87.38
2023-03-07T02:53:28.419Z,87.40
2023-03-07T02:58:31.236Z,87.67
2023-03-07T03:03:34.024Z,87.72
2023-03-07T03:08:36.931Z,87.98
2023-03-07T03:13:40.125Z,87.89
2023-03-07T03:18:43.376Z,88.16
2023-03-07T03:23:46.140Z,87.95
2023-03-07T03:28:49.241Z,87.99
2023-03-07T03:33:53.092Z,87.81
2023-03-07T03:38:57.535Z,88.14
2023-03-07T03:44:02.840Z,88.28
2023-03-07T03:49:06.431Z,88.23
2023-03-07T03:54:09.279Z,88.30
2023-03-07T03:59:12.185Z,88.31
2023-03-07T04:04:15.677Z,88.20
2023-03-07T04:09:18.469Z,88.34
2023-03-07T04:14:21.278Z,88.62
2023-03-07T04:19:25.329Z,88.67
2023-03-07T04:24:28.146Z,88.46
2023-03-07T04:29:31.163Z,89.35
2023-03-07T04:34:33.941Z,91.92
2023-03-07T04:39:36.711Z,91.65
2023-03-07T04:44:39.486Z,90.59
2023-03-07T04:49:42.239Z,89.19
2023-03-07T04:54:45.253Z,87.80
2023-03-07T04:59:48.025Z,87.29
2023-03-07T05:04:50.854Z,87.36
2023-03-07T05:09:53.660Z,87.11
2023-03-07T05:14:56.787Z,86.73
2023-03-07T05:19:59.673Z,86.50
2023-03-07T05:25:02.755Z,85.94
2023-03-07T05:30:06.121Z,85.53
2023-03-07T05:35:10.782Z,85.53
2023-03-07T05:40:14.210Z,84.77
2023-03-07T05:45:17.046Z,83.78
2023-03-07T05:50:22.575Z,83.11
2023-03-07T05:55:25.626Z,82.82
2023-03-07T06:00:28.658Z,81.79
2023-03-07T06:05:31.765Z,81.55
2023-03-07T06:10:34.909Z,81.85
2023-03-07T06:15:37.794Z,81.21
2023-03-07T06:20:40.697Z,81.22
2023-03-07T06:25:43.413Z,81.37
2023-03-07T06:30:46.502Z,80.60
2023-03-07T06:35:49.332Z,79.78
2023-03-07T06:40:56.461Z,78.85
2023-03-07T06:46:00.095Z,78.43
2023-03-07T06:51:10.514Z,78.48
2023-03-07T06:56:13.956Z,77.42
2023-03-07T07:01:19.804Z,77.12
2023-03-07T07:06:22.908Z,77.06
2023-03-07T07:11:26.052Z,74.80
2023-03-07T07:16:29.334Z,73.22
2023-03-07T07:21:32.250Z,71.88
2023-03-07T07:26:35.024Z,71.68
2023-03-07T07:31:38.599Z,72.51
2023-03-07T07:36:41.534Z,72.84
2023-03-07T07:41:45.159Z,73.08
2023-03-07T07:46:48.007Z,72.65
2023-03-07T07:51:50.861Z,72.69
2023-03-07T07:56:54.288Z,72.97
2023-03-07T08:02:00.909Z,72.29
2023-03-07T08:07:04.685Z,70.93
2023-03-07T08:12:12.650Z,67.88
2023-03-07T08:17:15.615Z,64.98
2023-03-07T08:22:19.587Z,63.36
2023-03-07T08:27:22.337Z,61.23
2023-03-07T08:32:25.178Z,59.30
2023-03-07T08:37:28.032Z,58.61
2023-03-07T08:42:33.236Z,56.91
2023-03-07T08:47:36.294Z,56.74
2023-03-07T08:52:39.225Z,54.97
2023-03-07T08:57:42.341Z,54.44
2023-03-07T09:02:45.183Z,54.20
2023-03-07T09:07:47.973Z,54.15
2023-03-07T09:12:55.291Z,53.99
2023-03-07T09:17:58.168Z,54.17
2023-03-07T09:23:01.031Z,54.94
2023-03-07T09:28:05.517Z,55.03
2023-03-07T09:33:08.405Z,54.31
2023-03-07T09:38:11.471Z,53.81
2023-03-07T09:43:22.998Z,53.68
2023-03-07T09:48:34.870Z,53.88
2023-03-07T09:53:59.330Z,55.08
2023-03-07T09:59:29.100Z,55.89
2023-03-07T10:04:56.794Z,56.20
2023-03-07T10:10:03.029Z,57.20
2023-03-07T10:15:32.657Z,57.54
2023-03-07T10:21:09.821Z,57.93
2023-03-07T10:26:21.843Z,58.55
2023-03-07T10:31:39.350Z,59.34
2023-03-07T10:36:55.235Z,60.44
2023-03-07T10:42:14.071Z,61.05
2023-03-07T10:47:25.814Z,62.14
2023-03-07T10:52:50.403Z,62.69
2023-03-07T10:57:53.431Z,63.54
2023-03-07T11:02:56.718Z,63.72
2023-03-07T11:08:03.046Z,64.56
2023-03-07T11:13:19.622Z,65.29
2023-03-07T11:18:34.918Z,66.67
2023-03-07T11:23:40.333Z,67.92
2023-03-07T11:28:45.414Z,69.33
2023-03-07T11:34:00.753Z,70.61
2023-03-07T11:39:12.735Z,72.16
2023-03-07T11:44:46.719Z,73.52
2023-03-07T11:50:17.495Z,75.32
2023-03-07T11:55:27.358Z,76.72
2023-03-07T12:00:43.053Z,77.79
2023-03-07T12:05:57.882Z,78.58
2023-03-07T12:11:27.084Z,78.91
2023-03-07T12:16:50.946Z,78.82
2023-03-07T12:21:56.656Z,78.87
2023-03-07T12:27:04.357Z,78.83
2023-03-07T12:32:15.008Z,79.16
2023-03-07T12:37:29.011Z,79.86
2023-03-07T12:42:49.803Z,80.02
2023-03-07T12:47:58.932Z,80.35
2023-03-07T12:53:16.452Z,80.78
2023-03-07T12:58:32.337Z,81.34
2023-03-07T13:04:00.273Z,81.83
2023-03-07T13:09:04.262Z,82.63
2023-03-07T13:14:09.168Z,83.17
2023-03-07T13:19:30.817Z,83.46
2023-03-07T13:24:38.703Z,84.30
2023-03-07T13:30:13.408Z,85.17
2023-03-07T13:35:48.554Z,85.60
2023-03-07T13:41:01.850Z,85.85
2023-03-07T13:46:26.244Z,86.07
2023-03-07T13:51:30.701Z,86.38
2023-03-07T13:56:41.829Z,86.35
2023-03-07T14:02:02.045Z,86.31
2023-03-07T14:07:16.090Z,86.95
2023-03-07T14:13:05.622Z,87.04
2023-03-07T14:18:27.982Z,87.72
2023-03-07T14:23:52.223Z,88.21
2023-03-07T14:29:00.247Z,88.77
2023-03-07T14:34:16.912Z,89.08
2023-03-07T14:39:20.740Z,89.68
2023-03-07T14:45:02.282Z,90.23
2023-03-07T14:50:16.817Z,90.20
2023-03-07T14:55:25.223Z,91.12
2023-03-07T15:00:30.080Z,91.59
2023-03-07T15:05:45.949Z,92.12
2023-03-07T15:11:01.004Z,92.70
2023-03-07T15:16:10.383Z,92.98
2023-03-07T15:21:19.774Z,93.09
2023-03-07T15:26:26.491Z,93.59
2023-03-07T15:31:30.811Z,94.24
2023-03-07T15:36:37.302Z,94.01
2023-03-07T15:41:40.390Z,94.26
2023-03-07T15:47:06.001Z,94.36
2023-03-07T15:52:32.011Z,94.65
2023-03-07T15:57:40.401Z,95.12
2023-03-07T16:02:50.650Z,95.04
2023-03-07T16:07:56.221Z,95.28
2023-03-07T16:13:01.595Z,95.39
2023-03-07T16:18:05.669Z,95.20
2023-03-07T16:23:15.775Z,95.39
2023-03-07T16:28:18.667Z,95.54
2023-03-07T16:33:22.093Z,95.79
2023-03-07T16:38:24.985Z,95.55
2023-03-07T16:43:39.438Z,95.58
2023-03-07T16:48:45.257Z,95.51
2023-03-07T16:53:50.401Z,95.88
2023-03-07T16:58:54.130Z,96.67
2023-03-07T17:03:57.217Z,96.84
2023-03-07T17:09:00.013Z,96.78
2023-03-07T17:14:07.153Z,96.61
2023-03-07T17:19:32.184Z,96.76
2023-03-07T17:24:37.324Z,96.76
2023-03-07T17:29:50.077Z,96.86
2023-03-07T17:34:53.277Z,96.86
2023-03-07T17:39:58.356Z,97.17
2023-03-07T17:45:01.283Z,97.37
2023-03-07T17:50:06.026Z,97.62
2023-03-07T17:55:10.081Z,98.07
2023-03-07T18:00:14.432Z,98.35
2023-03-07T18:05:19.679Z,98.97
2023-03-07T18:10:23.149Z,99.84
2023-03-07T18:15:30.425Z,100.00
2023-03-07T18:20:34.738Z,100.00
2023-03-07T18:25:37.668Z,100.00
2023-03-07T18:30:40.481Z,100.00
2023-03-07T18:35:43.461Z,100.00
2023-03-07T18:40:47.984Z,100.00
2023-03-07T18:45:51.948Z,99.85
2023-03-07T18:50:59.179Z,99.16
2023-03-07T18:56:06.582Z,99.58
2023-03-07T19:01:14.526Z,99.81
2023-03-07T19:06:20.367Z,100.00
2023-03-07T19:11:23.202Z,100.00
2023-03-07T19:16:30.777Z,100.00
2023-03-07T19:21:33.902Z,100.00
2023-03-07T19:26:36.756Z,100.00
2023-03-07T19:31:41.197Z,100.00
2023-03-07T19:36:44.224Z,100.00
2023-03-07T19:41:49.950Z,100.00
2023-03-07T19:46:53.064Z,100.00
2023-03-07T19:51:55.914Z,100.00
2023-03-07T19:56:58.971Z,100.00
2023-03-07T20:02:01.747Z,100.00
2023-03-07T20:07:04.849Z,100.00
2023-03-07T20:12:10.402Z,100.00
2023-03-07T20:17:13.259Z,100.00
2023-03-07T20:22:17.771Z,100.00
2023-03-07T20:27:22.085Z,100.00
2023-03-07T20:32:25.227Z,100.00
2023-03-07T20:37:28.388Z,100.00
2023-03-07T20:42:33.234Z,100.00
2023-03-07T20:47:38.606Z,100.00
2023-03-07T20:52:41.449Z,99.97
2023-03-07T20:57:44.226Z,100.00
2023-03-07T21:02:48.262Z,100.00
2023-03-07T21:07:51.279Z,100.00
2023-03-07T21:12:54.066Z,100.00
2023-03-07T21:17:56.824Z,100.00
2023-03-07T21:23:01.395Z,100.00
2023-03-07T21:28:06.286Z,100.00
2023-03-07T21:33:13.441Z,100.00
2023-03-07T21:38:16.437Z,100.00
2023-03-07T21:43:19.240Z,100.00
2023-03-07T21:48:22.030Z,100.00
2023-03-07T21:53:25.478Z,100.00
2023-03-07T21:58:30.260Z,100.00
2023-03-07T22:03:34.405Z,100.00
2023-03-07T22:08:38.431Z,100.00
2023-03-07T22:13:42.731Z,100.00
2023-03-07T22:18:45.529Z,100.00
2023-03-07T22:23:48.480Z,100.00
2023-03-07T22:28:52.297Z,100.00
2023-03-07T22:33:55.317Z,100.00
2023-03-07T22:38:58.097Z,100.00
2023-03-07T22:44:01.441Z,100.00
2023-03-07T22:49:04.327Z,100.00
2023-03-07T22:54:09.171Z,100.00
2023-03-07T22:59:13.536Z,100.00
2023-03-07T23:04:17.671Z,100.00
2023-03-07T23:09:23.928Z,100.00
2023-03-07T23:14:26.890Z,100.00
2023-03-07T23:19:31.588Z,100.00
2023-03-07T23:24:36.620Z,100.00
2023-03-07T23:29:39.815Z,100.00
2023-03-07T23:34:42.627Z,100.00
2023-03-07T23:39:45.470Z,100.00
2023-03-07T23:44:49.734Z,100.00
2023-03-07T23:49:52.648Z,100.00
2023-03-07T23:54:55.619Z,100.00
2023-03-07T23:59:58.461Z,100.00
